createdAt,value
2022-07-30T00:01:57.074Z,8.15
2022-07-30T00:04:24.445Z,8.05
2022-07-30T00:06:50.897Z,8.38
2022-07-30T00:09:17.301Z,8.52
2022-07-30T00:11:44.066Z,9.38
2022-07-30T00:14:10.765Z,9.25
2022-07-30T00:16:37.205Z,10.23
2022-07-30T00:19:04.097Z,9.68
2022-07-30T00:21:38.779Z,9.63
2022-07-30T00:24:05.992Z,9.50
2022-07-30T00:26:32.548Z,9.77
2022-07-30T00:28:58.936Z,10.13
2022-07-30T00:31:25.341Z,9.80
2022-07-30T00:33:51.719Z,9.23
2022-07-30T00:36:18.101Z,9.43
2022-07-30T00:38:45.644Z,9.90
2022-07-30T00:41:12.418Z,9.27
2022-07-30T00:43:39.092Z,9.48
2022-07-30T00:46:08.408Z,9.20
2022-07-30T00:48:38.153Z,9.73
2022-07-30T00:51:04.772Z,9.13
2022-07-30T00:53:31.236Z,9.73
2022-07-30T00:56:00.882Z,10.63
2022-07-30T00:58:27.881Z,9.60
2022-07-30T01:00:56.909Z,10.15
2022-07-30T01:03:23.463Z,9.65
2022-07-30T01:05:50.436Z,10.38
2022-07-30T01:08:17.037Z,9.75
2022-07-30T01:10:43.460Z,10.18
2022-07-30T01:13:12.832Z,10.70
2022-07-30T01:15:39.589Z,11.32
2022-07-30T01:18:07.911Z,10.82
2022-07-30T01:20:41.011Z,11.70
2022-07-30T01:23:07.551Z,12.27
2022-07-30T01:25:53.096Z,11.90
2022-07-30T01:28:25.157Z,11.80
2022-07-30T01:30:52.583Z,11.98
2022-07-30T01:33:19.824Z,12.57
2022-07-30T01:35:47.077Z,13.05
2022-07-30T01:38:16.574Z,12.27
2022-07-30T01:40:44.123Z,13.75
2022-07-30T01:43:13.819Z,13.38
2022-07-30T01:45:42.419Z,13.90
2022-07-30T01:48:14.918Z,14.18
2022-07-30T01:50:43.184Z,13.88
2022-07-30T01:53:09.963Z,14.02
2022-07-30T01:55:39.429Z,14.68
2022-07-30T01:58:06.521Z,15.02
2022-07-30T02:00:34.549Z,14.75
2022-07-30T02:03:01.136Z,15.07
2022-07-30T02:05:28.133Z,14.75
2022-07-30T02:08:06.507Z,15.60
2022-07-30T02:10:51.324Z,15.43
2022-07-30T02:13:22.792Z,16.05
2022-07-30T02:15:50.872Z,16.88
2022-07-30T02:18:23.876Z,17.52
2022-07-30T02:21:02.540Z,16.75
2022-07-30T02:23:38.998Z,15.95
2022-07-30T02:26:06.074Z,17.08
2022-07-30T02:28:34.266Z,16.42
2022-07-30T02:31:01.442Z,17.70
2022-07-30T02:33:32.870Z,17.20
2022-07-30T02:35:59.401Z,18.17
2022-07-30T02:38:27.971Z,16.10
2022-07-30T02:40:55.471Z,19.13
2022-07-30T02:43:25.162Z,18.42
2022-07-30T02:45:51.806Z,19.60
2022-07-30T02:48:35.109Z,18.02
2022-07-30T02:51:03.086Z,18.60
2022-07-30T02:53:30.365Z,18.40
2022-07-30T02:55:57.189Z,19.30
2022-07-30T02:58:25.608Z,19.23
2022-07-30T03:00:53.563Z,19.17
2022-07-30T03:03:20.684Z,19.38
2022-07-30T03:05:49.896Z,19.85
2022-07-30T03:08:19.316Z,19.38
2022-07-30T03:10:47.522Z,19.77
2022-07-30T03:13:14.830Z,20.13
2022-07-30T03:15:44.336Z,21.00
2022-07-30T03:18:12.335Z,21.55
2022-07-30T03:20:39.093Z,21.98
2022-07-30T03:23:06.968Z,22.30
2022-07-30T03:25:34.165Z,24.02
2022-07-30T03:28:01.402Z,23.98
2022-07-30T03:30:28.467Z,23.38
2022-07-30T03:32:55.924Z,24.00
2022-07-30T03:35:24.886Z,22.13
2022-07-30T03:37:53.248Z,24.52
2022-07-30T03:40:19.833Z,24.55
2022-07-30T03:42:48.596Z,24.60
2022-07-30T03:45:15.563Z,26.08
2022-07-30T03:47:43.188Z,27.08
2022-07-30T03:50:10.453Z,29.15
2022-07-30T03:52:38.748Z,28.27
2022-07-30T03:55:13.875Z,29.50
2022-07-30T03:57:40.325Z,29.52
2022-07-30T04:00:08.613Z,29.35
2022-07-30T04:02:40.963Z,31.30
2022-07-30T04:05:07.574Z,29.92
2022-07-30T04:07:33.999Z,28.65
2022-07-30T04:10:08.145Z,30.58
2022-07-30T04:12:36.576Z,28.02
2022-07-30T04:15:05.377Z,28.40
2022-07-30T04:17:53.767Z,27.95
2022-07-30T04:20:29.522Z,28.20
2022-07-30T04:25:24.905Z,28.08
2022-07-30T04:28:03.068Z,27.77
2022-07-30T04:30:29.940Z,29.13
2022-07-30T04:32:56.387Z,27.80
2022-07-30T04:35:51.139Z,27.42
2022-07-30T04:38:15.790Z,26.88
2022-07-30T04:40:42.414Z,25.88
2022-07-30T04:43:08.842Z,27.23
2022-07-30T04:45:35.437Z,26.30
2022-07-30T04:48:04.703Z,27.30
2022-07-30T04:50:32.968Z,26.60
2022-07-30T04:52:59.573Z,27.15
2022-07-30T04:55:31.658Z,25.92
2022-07-30T04:57:59.468Z,27.33
2022-07-30T05:00:31.002Z,27.90
2022-07-30T05:02:59.479Z,27.60
2022-07-30T05:05:28.048Z,26.00
2022-07-30T05:07:54.824Z,24.70
2022-07-30T05:10:21.234Z,25.70
2022-07-30T05:12:47.583Z,24.88
2022-07-30T05:15:14.171Z,24.40
2022-07-30T05:17:40.743Z,22.98
2022-07-30T05:20:07.399Z,23.40
2022-07-30T05:22:33.776Z,23.67
2022-07-30T05:25:00.216Z,25.35
2022-07-30T05:27:26.647Z,24.15
2022-07-30T05:29:53.139Z,24.48
2022-07-30T05:32:22.711Z,25.20
2022-07-30T05:34:52.092Z,25.33
2022-07-30T05:37:18.829Z,25.92
2022-07-30T05:39:57.598Z,25.02
2022-07-30T05:42:29.966Z,25.23
2022-07-30T05:44:56.425Z,25.63
2022-07-30T05:47:22.919Z,24.23
2022-07-30T05:49:49.588Z,24.40
2022-07-30T05:52:16.051Z,23.92
2022-07-30T05:54:42.474Z,25.38
2022-07-30T05:57:08.904Z,25.85
2022-07-30T05:59:35.431Z,26.35
2022-07-30T06:02:03.316Z,28.25
2022-07-30T06:04:30.104Z,27.50
2022-07-30T06:06:58.110Z,28.80
2022-07-30T06:09:36.336Z,28.55
2022-07-30T06:12:03.747Z,29.30
2022-07-30T06:14:32.042Z,26.98
2022-07-30T06:16:58.778Z,28.95
2022-07-30T06:19:26.197Z,28.67
2022-07-30T06:22:05.446Z,26.27
2022-07-30T06:24:32.924Z,28.75
2022-07-30T06:26:59.531Z,27.02
2022-07-30T06:29:26.169Z,26.98
2022-07-30T06:31:55.549Z,29.42
2022-07-30T06:34:22.061Z,29.88
2022-07-30T06:36:48.716Z,28.88
2022-07-30T06:39:15.331Z,28.90
2022-07-30T06:42:01.771Z,27.80
2022-07-30T06:44:28.138Z,27.73
2022-07-30T06:46:54.716Z,28.58
2022-07-30T06:49:21.191Z,27.77
2022-07-30T06:51:47.826Z,27.70
2022-07-30T06:54:14.329Z,25.73
2022-07-30T06:56:40.771Z,27.13
2022-07-30T06:59:07.188Z,26.65
2022-07-30T07:01:33.731Z,27.98
2022-07-30T07:04:00.268Z,28.17
2022-07-30T07:06:26.895Z,29.65
2022-07-30T07:08:53.380Z,28.75
2022-07-30T07:11:19.749Z,29.15
2022-07-30T07:13:46.139Z,30.05
2022-07-30T07:16:12.576Z,30.27
2022-07-30T07:18:38.950Z,31.70
2022-07-30T07:21:06.056Z,29.00
2022-07-30T07:23:42.017Z,29.40
2022-07-30T07:26:08.948Z,28.17
2022-07-30T07:28:35.401Z,27.70
2022-07-30T07:31:01.935Z,27.77
2022-07-30T07:33:28.545Z,25.55
2022-07-30T07:35:55.211Z,22.77
2022-07-30T07:38:21.960Z,23.42
2022-07-30T07:40:48.523Z,24.42
2022-07-30T07:43:15.364Z,24.75
2022-07-30T07:45:42.231Z,24.95
2022-07-30T07:48:08.904Z,24.75
2022-07-30T07:50:35.332Z,25.60
2022-07-30T07:53:01.758Z,23.58
2022-07-30T07:55:28.132Z,23.42
2022-07-30T07:57:58.117Z,24.33
2022-07-30T08:00:24.584Z,24.08
2022-07-30T08:02:51.089Z,24.30
2022-07-30T08:05:19.930Z,25.42
2022-07-30T08:07:46.418Z,26.02
2022-07-30T08:10:15.074Z,26.38
2022-07-30T08:12:42.202Z,27.40
2022-07-30T08:15:09.640Z,27.23
2022-07-30T08:17:46.297Z,27.05
2022-07-30T08:20:14.206Z,27.15
2022-07-30T08:22:41.190Z,26.45
2022-07-30T08:25:08.182Z,26.55
2022-07-30T08:27:35.024Z,27.23
2022-07-30T08:30:05.638Z,27.40
2022-07-30T08:32:32.267Z,26.70
2022-07-30T08:34:58.688Z,25.75
2022-07-30T08:37:26.660Z,25.88
2022-07-30T08:39:53.151Z,22.90
2022-07-30T08:42:19.483Z,20.90
2022-07-30T08:44:46.436Z,19.10
2022-07-30T08:47:16.087Z,16.17
2022-07-30T08:49:42.518Z,11.50
2022-07-30T08:52:10.651Z,11.85
2022-07-30T08:54:37.155Z,12.38
2022-07-30T08:57:04.258Z,12.80
2022-07-30T08:59:59.179Z,13.93
2022-07-30T09:02:27.590Z,13.45
2022-07-30T09:04:54.363Z,12.07
2022-07-30T09:07:20.825Z,13.07
2022-07-30T09:09:47.183Z,12.38
2022-07-30T09:12:31.699Z,9.32
2022-07-30T09:15:02.063Z,10.70
2022-07-30T09:17:31.234Z,9.85
2022-07-30T09:20:04.086Z,10.63
2022-07-30T09:22:43.923Z,10.95
2022-07-30T09:25:10.410Z,11.00
2022-07-30T09:27:47.146Z,10.20
2022-07-30T09:30:13.738Z,10.27
2022-07-30T09:32:50.616Z,9.43
2022-07-30T09:35:18.054Z,9.38
2022-07-30T09:37:45.858Z,10.07
2022-07-30T09:40:16.787Z,9.05
2022-07-30T09:42:44.031Z,9.00
2022-07-30T09:45:14.690Z,10.50
2022-07-30T09:47:42.678Z,9.75
2022-07-30T09:50:10.396Z,10.90
2022-07-30T09:52:44.013Z,9.77
2022-07-30T09:55:28.394Z,8.65
2022-07-30T09:57:58.716Z,8.00
2022-07-30T10:00:26.364Z,7.82
2022-07-30T10:02:54.121Z,7.82
2022-07-30T10:05:21.031Z,9.02
2022-07-30T10:07:52.123Z,7.85
2022-07-30T10:10:19.759Z,7.47
2022-07-30T10:12:47.749Z,7.25
2022-07-30T10:15:15.824Z,7.65
2022-07-30T10:17:42.323Z,8.07
2022-07-30T10:20:09.179Z,7.97
2022-07-30T10:22:37.884Z,7.88
2022-07-30T10:25:05.236Z,8.43
2022-07-30T10:27:32.191Z,7.90
2022-07-30T10:29:58.881Z,7.90
2022-07-30T10:32:30.931Z,8.60
2022-07-30T10:34:58.241Z,8.20
2022-07-30T10:37:25.935Z,7.63
2022-07-30T10:39:54.958Z,8.05
2022-07-30T10:42:28.438Z,7.60
2022-07-30T10:45:17.606Z,7.00
2022-07-30T10:47:49.006Z,7.35
2022-07-30T10:50:22.371Z,7.43
2022-07-30T10:52:53.355Z,7.90
2022-07-30T10:55:37.259Z,7.50
2022-07-30T10:58:05.927Z,8.10
2022-07-30T11:00:38.173Z,7.47
2022-07-30T11:03:15.004Z,7.28
2022-07-30T11:05:45.378Z,6.65
2022-07-30T11:08:32.201Z,7.13
2022-07-30T11:11:16.146Z,6.80
2022-07-30T11:13:49.557Z,7.18
2022-07-30T11:16:17.454Z,6.35
2022-07-30T11:19:56.707Z,6.55
2022-07-30T11:22:09.485Z,6.25
2022-07-30T11:24:47.333Z,6.72
2022-07-30T11:27:36.049Z,5.70
2022-07-30T11:30:03.539Z,6.15
2022-07-30T11:32:32.148Z,6.00
2022-07-30T11:35:11.920Z,6.57
2022-07-30T11:38:00.898Z,7.10
2022-07-30T11:40:33.051Z,6.80
2022-07-30T11:43:35.871Z,6.63
2022-07-30T11:46:07.059Z,7.93
2022-07-30T11:48:37.625Z,6.00
2022-07-30T11:51:04.217Z,5.75
2022-07-30T11:53:30.746Z,5.38
2022-07-30T11:55:59.154Z,4.97
2022-07-30T11:58:29.453Z,5.13
2022-07-30T12:00:57.082Z,4.82
2022-07-30T12:03:24.474Z,4.35
2022-07-30T12:05:52.550Z,4.65
2022-07-30T12:08:35.296Z,4.90
2022-07-30T12:11:02.137Z,5.13
2022-07-30T12:13:45.177Z,5.38
2022-07-30T12:16:14.021Z,5.13
2022-07-30T12:18:40.437Z,4.70
2022-07-30T12:21:09.187Z,5.50
2022-07-30T12:23:36.206Z,5.30
2022-07-30T12:26:03.179Z,5.20
2022-07-30T12:28:30.467Z,5.15
2022-07-30T12:30:57.972Z,6.00
2022-07-30T12:33:24.990Z,5.13
2022-07-30T12:35:55.677Z,5.45
2022-07-30T12:38:22.882Z,6.05
2022-07-30T12:40:52.481Z,5.00
2022-07-30T12:43:37.663Z,5.50
2022-07-30T12:46:05.226Z,5.38
2022-07-30T12:48:31.618Z,5.70
2022-07-30T12:51:06.783Z,5.68
2022-07-30T12:53:33.357Z,6.28
2022-07-30T12:56:29.563Z,5.93
2022-07-30T12:58:57.423Z,6.30
2022-07-30T13:01:41.001Z,6.20
2022-07-30T13:04:07.920Z,6.20
2022-07-30T13:06:34.685Z,6.32
2022-07-30T13:09:01.333Z,6.13
2022-07-30T13:11:48.419Z,6.20
2022-07-30T13:14:17.183Z,6.97
2022-07-30T13:16:43.932Z,6.07
2022-07-30T13:19:13.886Z,5.45
2022-07-30T13:21:48.665Z,6.25
2022-07-30T13:24:18.090Z,6.15
2022-07-30T13:26:44.740Z,6.20
2022-07-30T13:29:13.421Z,6.47
2022-07-30T13:31:43.039Z,6.82
2022-07-30T13:34:10.532Z,7.07
2022-07-30T13:36:36.919Z,7.03
2022-07-30T13:39:03.604Z,6.63
2022-07-30T13:41:30.116Z,7.38
2022-07-30T13:43:56.511Z,5.95
2022-07-30T13:46:22.952Z,6.68
2022-07-30T13:48:49.938Z,6.60
2022-07-30T13:51:16.582Z,5.80
2022-07-30T13:53:43.131Z,6.45
2022-07-30T13:56:12.430Z,6.53
2022-07-30T13:58:39.532Z,5.78
2022-07-30T14:01:07.127Z,5.45
2022-07-30T14:03:34.235Z,5.75
2022-07-30T14:06:10.670Z,5.47
2022-07-30T14:08:37.584Z,5.45
2022-07-30T14:11:06.623Z,4.90
2022-07-30T14:13:32.995Z,4.28
2022-07-30T14:15:59.566Z,4.22
2022-07-30T14:18:26.032Z,4.10
2022-07-30T14:20:53.721Z,4.00
2022-07-30T14:23:22.294Z,4.70
2022-07-30T14:25:48.799Z,4.20
2022-07-30T14:28:15.459Z,4.18
2022-07-30T14:30:42.196Z,4.30
2022-07-30T14:33:08.629Z,3.90
2022-07-30T14:35:35.062Z,4.18
2022-07-30T14:38:03.387Z,3.63
2022-07-30T14:40:30.102Z,3.25
2022-07-30T14:42:56.503Z,3.83
2022-07-30T14:45:24.451Z,3.10
2022-07-30T14:47:52.422Z,3.72
2022-07-30T14:50:18.904Z,3.80
2022-07-30T14:52:47.341Z,3.40
2022-07-30T14:55:13.808Z,3.85
2022-07-30T14:57:40.220Z,3.63
2022-07-30T15:00:11.295Z,3.50
2022-07-30T15:02:38.207Z,3.80
2022-07-30T15:05:04.846Z,3.38
2022-07-30T15:07:32.556Z,3.58
2022-07-30T15:10:01.629Z,3.03
2022-07-30T15:12:28.254Z,3.28
2022-07-30T15:14:54.708Z,3.20
2022-07-30T15:17:22.287Z,3.33
2022-07-30T15:19:51.655Z,3.38
2022-07-30T15:22:21.287Z,3.20
2022-07-30T15:24:50.813Z,3.50
2022-07-30T15:27:17.285Z,3.83
2022-07-30T15:29:44.513Z,3.70
2022-07-30T15:32:10.970Z,3.70
2022-07-30T15:34:37.343Z,4.47
2022-07-30T15:37:05.402Z,4.32
2022-07-30T15:39:32.948Z,4.07
2022-07-30T15:42:00.717Z,4.10
2022-07-30T15:44:27.497Z,3.83
2022-07-30T15:46:54.265Z,3.80
2022-07-30T15:49:20.778Z,3.90
2022-07-30T15:51:49.968Z,3.95
2022-07-30T15:54:22.456Z,3.45
2022-07-30T15:56:54.139Z,3.47
2022-07-30T15:59:27.940Z,3.60
2022-07-30T16:01:54.329Z,3.25
2022-07-30T16:04:20.781Z,3.40
2022-07-30T16:06:59.357Z,3.42
2022-07-30T16:09:25.794Z,3.35
2022-07-30T16:11:53.583Z,3.55
2022-07-30T16:14:20.133Z,3.30
2022-07-30T16:16:46.632Z,3.20
2022-07-30T16:19:13.049Z,3.70
2022-07-30T16:21:39.592Z,3.70
2022-07-30T16:24:06.237Z,3.88
2022-07-30T16:26:32.899Z,4.30
2022-07-30T16:28:59.273Z,4.80
2022-07-30T16:31:25.638Z,4.75
2022-07-30T16:33:52.189Z,4.47
2022-07-30T16:36:18.667Z,4.65
2022-07-30T16:38:45.052Z,4.28
2022-07-30T16:41:13.683Z,4.57
2022-07-30T16:43:40.307Z,5.03
2022-07-30T16:46:06.747Z,4.95
2022-07-30T16:48:33.194Z,4.00
2022-07-30T16:50:59.712Z,4.43
2022-07-30T16:53:26.647Z,4.07
2022-07-30T16:55:53.074Z,4.43
2022-07-30T16:58:19.633Z,3.90
2022-07-30T17:00:48.739Z,4.00
2022-07-30T17:03:20.146Z,3.72
2022-07-30T17:05:47.008Z,3.67
2022-07-30T17:08:13.638Z,3.65
2022-07-30T17:10:40.961Z,3.63
2022-07-30T17:13:07.543Z,3.45
2022-07-30T17:15:34.068Z,4.15
2022-07-30T17:18:00.829Z,3.90
2022-07-30T17:20:27.476Z,3.85
2022-07-30T17:22:56.519Z,4.25
2022-07-30T17:25:27.580Z,4.55
2022-07-30T17:27:57.704Z,4.30
2022-07-30T17:30:24.833Z,4.15
2022-07-30T17:32:51.430Z,4.28
2022-07-30T17:35:18.186Z,4.93
2022-07-30T17:37:44.645Z,4.47
2022-07-30T17:40:29.007Z,4.57
2022-07-30T17:43:03.607Z,4.65
2022-07-30T17:45:30.846Z,4.43
2022-07-30T17:47:57.991Z,4.50
2022-07-30T17:50:24.533Z,4.82
2022-07-30T17:52:51.020Z,4.90
2022-07-30T17:55:17.506Z,4.75
2022-07-30T17:57:43.979Z,5.43
2022-07-30T18:00:10.762Z,5.20
2022-07-30T18:02:37.261Z,6.07
2022-07-30T18:05:03.815Z,5.43
2022-07-30T18:07:30.524Z,6.00
2022-07-30T18:09:56.860Z,5.53
2022-07-30T18:12:23.387Z,5.78
2022-07-30T18:14:50.470Z,6.07
2022-07-30T18:17:16.907Z,6.13
2022-07-30T18:19:43.263Z,6.07
2022-07-30T18:22:09.927Z,6.13
2022-07-30T18:24:40.557Z,7.05
2022-07-30T18:27:11.699Z,6.47
2022-07-30T18:29:38.155Z,7.20
2022-07-30T18:32:06.246Z,7.20
2022-07-30T18:34:33.077Z,8.10
2022-07-30T18:36:59.527Z,8.55
2022-07-30T18:39:26.161Z,9.48
2022-07-30T18:41:52.609Z,8.25
2022-07-30T18:44:18.975Z,7.88
2022-07-30T18:46:45.518Z,8.52
2022-07-30T18:49:35.082Z,8.75
2022-07-30T18:51:59.581Z,8.50
2022-07-30T18:54:26.506Z,9.45
2022-07-30T18:56:52.888Z,9.90
2022-07-30T18:59:19.297Z,9.98
2022-07-30T19:01:45.798Z,8.30
2022-07-30T19:04:12.142Z,8.55
2022-07-30T19:06:38.698Z,8.20
2022-07-30T19:09:05.814Z,8.65
2022-07-30T19:11:40.568Z,7.88
2022-07-30T19:14:06.983Z,8.70
2022-07-30T19:16:33.458Z,9.00
2022-07-30T19:18:59.998Z,8.75
2022-07-30T19:21:26.447Z,8.68
2022-07-30T19:23:52.995Z,11.32
2022-07-30T19:26:21.093Z,10.05
2022-07-30T19:28:47.597Z,9.90
2022-07-30T19:31:14.935Z,9.88
2022-07-30T19:33:44.057Z,12.38
2022-07-30T19:36:10.575Z,14.48
2022-07-30T19:38:39.839Z,12.65
2022-07-30T19:41:09.975Z,11.60
2022-07-30T19:43:37.265Z,12.10
2022-07-30T19:46:05.996Z,14.02
2022-07-30T19:48:34.568Z,13.73
2022-07-30T19:51:02.239Z,14.57
2022-07-30T19:53:34.195Z,16.10
2022-07-30T19:56:03.151Z,16.55
2022-07-30T19:58:30.249Z,14.32
2022-07-30T20:00:56.693Z,14.10
2022-07-30T20:03:25.561Z,14.52
2022-07-30T20:05:58.961Z,14.88
2022-07-30T20:08:26.597Z,22.15
2022-07-30T20:10:57.866Z,16.40
2022-07-30T20:13:44.842Z,13.18
2022-07-30T20:16:13.959Z,13.63
2022-07-30T20:18:40.766Z,14.68
2022-07-30T20:21:14.026Z,17.55
2022-07-30T20:23:41.415Z,21.20
2022-07-30T20:26:12.639Z,23.75
2022-07-30T20:28:39.780Z,18.63
2022-07-30T20:31:07.003Z,26.38
2022-07-30T20:33:36.075Z,19.42
2022-07-30T20:36:04.481Z,16.38
2022-07-30T20:38:32.439Z,16.50
2022-07-30T20:40:59.824Z,16.05
2022-07-30T20:43:27.461Z,16.38
2022-07-30T20:45:55.280Z,17.35
2022-07-30T20:48:25.520Z,17.90
2022-07-30T20:50:52.476Z,16.55
2022-07-30T20:53:20.916Z,17.05
2022-07-30T20:55:47.359Z,16.08
2022-07-30T20:58:16.568Z,16.45
2022-07-30T21:00:49.706Z,15.63
2022-07-30T21:03:21.223Z,15.93
2022-07-30T21:05:48.246Z,16.65
2022-07-30T21:08:17.773Z,20.60
2022-07-30T21:10:44.847Z,17.77
2022-07-30T21:13:12.811Z,18.58
2022-07-30T21:15:45.477Z,18.55
2022-07-30T21:18:25.835Z,16.80
2022-07-30T21:20:53.199Z,18.60
2022-07-30T21:23:22.374Z,17.13
2022-07-30T21:26:03.049Z,18.17
2022-07-30T21:28:35.350Z,17.92
2022-07-30T21:31:02.418Z,16.98
2022-07-30T21:33:31.619Z,16.48
2022-07-30T21:35:58.896Z,16.73
2022-07-30T21:38:28.819Z,17.27
2022-07-30T21:40:58.525Z,16.50
2022-07-30T21:43:29.939Z,17.60
2022-07-30T21:45:57.033Z,16.63
2022-07-30T21:48:24.731Z,17.08
2022-07-30T21:50:52.271Z,17.00
2022-07-30T21:53:29.945Z,16.45
2022-07-30T21:56:05.725Z,16.77
2022-07-30T21:58:32.572Z,18.05
2022-07-30T22:01:01.035Z,19.00
2022-07-30T22:04:04.729Z,19.27
2022-07-30T22:06:29.353Z,19.05
2022-07-30T22:08:56.438Z,16.95
2022-07-30T22:11:23.157Z,17.17
2022-07-30T22:13:53.446Z,17.35
2022-07-30T22:16:36.341Z,17.33
2022-07-30T22:19:05.353Z,17.15
2022-07-30T22:21:32.096Z,16.73
2022-07-30T22:23:58.572Z,18.45
2022-07-30T22:26:26.740Z,20.48
2022-07-30T22:28:54.422Z,20.05
2022-07-30T22:31:21.131Z,19.80
2022-07-30T22:33:49.834Z,20.23
2022-07-30T22:36:17.564Z,19.73
2022-07-30T22:38:58.986Z,21.00
2022-07-30T22:41:26.000Z,20.55
2022-07-30T22:43:55.814Z,18.77
2022-07-30T22:46:31.150Z,19.48
2022-07-30T22:48:59.367Z,20.55
2022-07-30T22:52:00.861Z,21.45
2022-07-30T22:54:13.443Z,18.67
2022-07-30T22:56:40.196Z,19.55
2022-07-30T22:59:06.920Z,17.77
2022-07-30T23:01:33.326Z,18.05
2022-07-30T23:04:01.563Z,17.73
2022-07-30T23:06:28.192Z,18.70
2022-07-30T23:08:56.553Z,17.38
2022-07-30T23:11:23.054Z,17.95
2022-07-30T23:13:49.670Z,20.20
2022-07-30T23:16:17.328Z,22.95
2022-07-30T23:18:44.386Z,21.42
2022-07-30T23:21:11.038Z,21.02
2022-07-30T23:23:37.403Z,20.75
2022-07-30T23:26:04.658Z,19.08
2022-07-30T23:28:31.142Z,19.00
2022-07-30T23:30:57.745Z,19.27
2022-07-30T23:33:24.099Z,19.05
2022-07-30T23:35:52.183Z,20.08
2022-07-30T23:38:18.624Z,18.08
2022-07-30T23:40:44.998Z,19.60
2022-07-30T23:43:11.499Z,17.92
2022-07-30T23:45:37.941Z,18.58
2022-07-30T23:48:04.485Z,19.20
2022-07-30T23:50:32.805Z,18.95
2022-07-30T23:52:59.952Z,19.75
2022-07-30T23:55:27.200Z,18.55
2022-07-30T23:57:53.714Z,19.05
